• Join FlightAware (Why Join?)
  • Login
  • US Flag 
03:41PM EDT


 

Airport Tracker/Info


-or-


 

Live Flight TrackerFlight Track Log ✈ N4936T ✈ 12-Apr-2012 ✈ KORL - KSOP

Flight Track Log - Related Links

Times and Time Zones

All times are in EDT time to prevent confusion due to time zone crossing. See the N4936T flight status page for this flight to view local times or setup timezone preferences in your user account.

Time Position Orientation Groundspeed Altitude Reporting Facility
EDT Latitude Longitude Course Direction KTS MPH feet Rate Location/Type
09:17AM 28.5500 -81.3167 41° Northeast 48 55 400  Level Orlando TRACON
09:19AM 28.5667 -81.3000 360° North 96 110 1,500 600 Climbing Orlando TRACON
09:20AM 28.6000 -81.3000 360° North 112 129 2,000 420 Climbing Orlando TRACON
09:21AM 28.6333 -81.3000 360° North 108 124 2,500 480 Climbing Orlando TRACON
09:22AM 28.6667 -81.3000 336° Northwest 98 113 3,000 240 Climbing Orlando TRACON
09:23AM 28.7000 -81.3167 336° Northwest 126 145 3,000 240 Level Orlando TRACON
09:24AM 28.7333 -81.3333 360° North 115 132 3,500 600 Climbing Orlando TRACON
09:25AM 28.7500 -81.3333 360° North 95 109 4,200 600 Climbing Orlando TRACON
09:26AM 28.7833 -81.3333 296° West 94 108 4,800 480 Climbing Orlando TRACON
09:26AM 28.7897 -81.3481 354° North 95 109 5,000 60 Climbing Jacksonville Center
09:27AM 28.8231 -81.3522 355° North 124 143 4,900  Descending Jacksonville Center
09:28AM 28.8628 -81.3564 352° North 131 151 5,000  Climbing Jacksonville Center
09:29AM 28.9006 -81.3628 358° North 133 153 5,000  Level Jacksonville Center
09:30AM 28.9400 -81.3647 354° North 135 155 5,000  Level Jacksonville Center
09:31AM 28.9778 -81.3689 355° North 135 155 5,000  Level Jacksonville Center
09:32AM 29.0194 -81.3728 354° North 136 157 5,000 -60 Level Jacksonville Center
09:33AM 29.0572 -81.3769 357° North 137 158 4,900 -60 Descending Jacksonville Center
09:34AM 29.0928 -81.3789 354° North 138 159 4,900  Level Jacksonville Center
09:35AM 29.1303 -81.3831 348° North 133 153 5,000  Climbing Jacksonville Center
09:36AM 29.1681 -81.3919 North 136 157 5,000  Level Jacksonville Center
09:37AM 29.2056 -81.3867 North 137 158 5,000  Level Jacksonville Center
09:38AM 29.2492 -81.3814 North 137 158 5,000  Level Jacksonville Center
09:39AM 29.2889 -81.3783 North 140 161 5,000 -60 Level Jacksonville Center
09:40AM 29.3286 -81.3778 North 141 162 4,900  Descending Jacksonville Center
09:42AM 29.3681 -81.3722 North 140 161 5,000  Climbing Jacksonville Center
09:43AM 29.4056 -81.3717 358° North 138 159 5,000  Level Jacksonville Center
09:44AM 29.4453 -81.3733 North 139 160 5,000  Level Jacksonville Center
09:45AM 29.4869 -81.3681 North 140 161 5,000  Level Jacksonville Center
09:45AM 29.5225 -81.3650 North 142 163 5,000  Level Jacksonville Center
09:46AM 29.5642 -81.3644 North 143 165 5,000  Level Jacksonville Center
09:47AM 29.5978 -81.3639 North 144 166 5,100  Climbing Jacksonville Center
09:48AM 29.6331 -81.3633 North 143 165 5,100 -60 Level Jacksonville Center
09:49AM 29.6728 -81.3603 North 142 163 5,000 -60 Descending Jacksonville Center
09:50AM 29.7167 -81.3597 North 146 168 5,000  Level Jacksonville Center
09:51AM 29.7542 -81.3592 North 145 167 5,000  Level Jacksonville Center
09:52AM 29.7939 -81.3561 North 144 166 5,000  Level Jacksonville Center
09:53AM 29.8314 -81.3556 North 143 165 5,000  Level Jacksonville Center
09:54AM 29.8753 -81.3525 North 144 166 5,000 180 Level Jacksonville Center
09:55AM 29.9147 -81.3517 North 139 160 5,400 420 Climbing Jacksonville Center
09:56AM 29.9483 -81.3511 North 117 135 5,900 540 Climbing Jacksonville Center
09:57AM 29.9794 -81.3483 North 112 129 6,600 540 Climbing Jacksonville Center
09:58AM 30.0086 -81.3456 11° North 108 124 7,000 180 Climbing Jacksonville Center
09:59AM 30.0419 -81.3378 North 132 152 7,000  Level Jacksonville Center
10:00AM 30.0817 -81.3372 North 132 152 7,000  Level Jacksonville Center
10:01AM 30.1192 -81.3364 North 132 152 7,100  Climbing Jacksonville Center
10:02AM 30.1567 -81.3333 North 133 153 7,000 -60 Descending Jacksonville Center
10:03AM 30.1944 -81.3328 North 133 153 7,000  Level Jacksonville Center
10:04AM 30.2319 -81.3297 North 133 153 7,000  Level Jacksonville Center
10:05AM 30.2714 -81.3267 North 134 154 7,000  Level Jacksonville Center
10:06AM 30.3092 -81.3261 North 132 152 7,100  Climbing Jacksonville Center
10:07AM 30.3444 -81.3231 North 131 151 7,000  Descending Jacksonville Center
10:08AM 30.3842 -81.3203 North 132 152 7,100  Climbing Jacksonville Center
10:10AM 30.4258 -81.3169 357° North 133 153 7,000  Descending Jacksonville Center
10:10AM 30.4553 -81.3189 North 135 155 7,100  Climbing Jacksonville Center
10:12AM 30.4989 -81.3183 North 137 158 7,000 -60 Descending Jacksonville Center
10:12AM 30.5239 -81.3156 North 140 161 7,000  Level Jacksonville Center
10:13AM 30.5636 -81.3125 North 135 155 7,100  Climbing Jacksonville Center
10:14AM 30.6011 -81.3117 North 135 155 7,100 -60 Level Jacksonville Center
10:15AM 30.6389 -81.3086 North 135 155 7,000 -60 Descending Jacksonville Center
10:16AM 30.6742 -81.3058 North 135 155 7,000  Level Jacksonville Center
10:18AM 30.7264 -81.3047 North 135 155 7,000  Level Jacksonville Center
10:18AM 30.7494 -81.3019 North 142 163 7,000  Level Jacksonville Center
10:19AM 30.7869 -81.2989 North 142 163 7,000  Level Jacksonville Center
10:20AM 30.8222 -81.2983 North 142 163 7,000  Level Jacksonville Center
10:21AM 30.8600 -81.2978 North 137 158 7,000  Level Jacksonville Center
10:22AM 30.8975 -81.2972 North 131 151 7,000  Level Jacksonville Center
10:23AM 30.9308 -81.2942 North 131 151 7,000  Level Jacksonville Center
10:24AM 30.9683 -81.2936 North 131 151 7,000  Level Jacksonville Center
10:25AM 31.0061 -81.2906 North 126 145 7,000  Level Jacksonville Center
10:26AM 31.0436 -81.2897 North 126 145 7,000  Level Jacksonville Center
10:27AM 31.0792 -81.2867 North 126 145 7,000  Level Jacksonville Center
10:28AM 31.1208 -81.2861 North 132 152 7,000  Level Jacksonville Center
10:29AM 31.1625 -81.2828 North 131 151 7,000  Level Jacksonville Center
10:30AM 31.2000 -81.2797 10° North 123 142 7,000  Level Jacksonville Center
10:31AM 31.2375 -81.2719 26° Northeast 123 142 7,000  Level Jacksonville Center
10:32AM 31.2686 -81.2544 17° North 131 151 7,000 -60 Level Jacksonville Center
10:33AM 31.3039 -81.2417 19° North 131 151 6,900 -60 Descending Jacksonville Center
10:34AM 31.3414 -81.2264 21° North 131 151 6,900  Level Jacksonville Center
10:35AM 31.3808 -81.2086 19° North 136 157 6,900  Level Jacksonville Center
10:36AM 31.4119 -81.1958 17° North 136 157 6,900  Level Jacksonville Center
10:37AM 31.4472 -81.1831 18° North 125 144 7,000  Climbing Jacksonville Center
10:38AM 31.4867 -81.1678 17° North 125 144 7,000  Level Jacksonville Center
10:39AM 31.5219 -81.1550 17° North 125 144 7,000  Level Jacksonville Center
10:40AM 31.5594 -81.1419 18° North 131 151 7,000 -60 Level Jacksonville Center
10:41AM 31.5928 -81.1292 22° Northeast 131 151 6,900 -120 Descending Jacksonville Center
10:49AM 31.8443 -81.0099 22° Northeast  Level FlightAware Approximate
10:50AM 31.8784 -80.9937 21° North  Level FlightAware Approximate
10:51AM 31.9138 -80.9774 21° North  Level FlightAware Approximate
10:52AM 31.9492 -80.9611 21° North  Level FlightAware Approximate
10:53AM 31.9846 -80.9448 21° North  Level FlightAware Approximate
10:54AM 32.0200 -80.9285 21° North  Level FlightAware Approximate
10:55AM 32.0554 -80.9122 21° North  Level FlightAware Approximate
10:56AM 32.0908 -80.8959 21° North  Level FlightAware Approximate
10:57AM 32.1262 -80.8796 21° North  Level FlightAware Approximate
10:58AM 32.1616 -80.8633 21° North  Level FlightAware Approximate
10:59AM 32.1970 -80.8470 21° North  Level FlightAware Approximate
11:00AM 32.2324 -80.8307 21° North  Level FlightAware Approximate
11:01AM 32.2678 -80.8143 21° North  Level FlightAware Approximate
11:02AM 32.3032 -80.7978 21° North  Level FlightAware Approximate
11:03AM 32.3386 -80.7814 21° North  Level FlightAware Approximate
11:04AM 32.3740 -80.7649 21° North  Level FlightAware Approximate
11:05AM 32.4093 -80.7484 22° Northeast  Level FlightAware Approximate
11:06AM 32.4447 -80.7319 22° Northeast  Level FlightAware Approximate
11:07AM 32.4800 -80.7154 22° Northeast  Level FlightAware Approximate
11:08AM 32.5154 -80.6988 22° Northeast  Level FlightAware Approximate
11:09AM 32.5507 -80.6823 22° Northeast  Level FlightAware Approximate
11:10AM 32.5861 -80.6657 22° Northeast  Level FlightAware Approximate
11:11AM 32.6214 -80.6492 22° Northeast  Level FlightAware Approximate
11:12AM 32.6568 -80.6326 22° Northeast  Level FlightAware Approximate
11:13AM 32.6921 -80.6160 22° Northeast  Level FlightAware Approximate
11:14AM 32.7275 -80.5994 22° Northeast  Level FlightAware Approximate
11:15AM 32.7628 -80.5827 22° Northeast  Level FlightAware Approximate
11:16AM 32.7982 -80.5661 22° Northeast  Level FlightAware Approximate
11:17AM 32.8335 -80.5495 338° Northwest  Level FlightAware Approximate
11:18AM 32.8684 -80.5658 22° Northeast  Level FlightAware Approximate
11:19AM 32.9035 -80.5487 22° Northeast  Level FlightAware Approximate
11:20AM 32.9387 -80.5316 22° Northeast  Level FlightAware Approximate
11:21AM 32.9739 -80.5145 22° Northeast  Level FlightAware Approximate
11:22AM 33.0091 -80.4974 22° Northeast  Level FlightAware Approximate
11:23AM 33.0443 -80.4802 22° Northeast  Level FlightAware Approximate
11:24AM 33.0795 -80.4630 22° Northeast  Level FlightAware Approximate
11:25AM 33.1146 -80.4458 22° Northeast  Level FlightAware Approximate
11:26AM 33.1498 -80.4286 22° Northeast  Level FlightAware Approximate
11:27AM 33.1850 -80.4114 22° Northeast  Level FlightAware Approximate
11:28AM 33.2201 -80.3942 22° Northeast  Level FlightAware Approximate
11:29AM 33.2553 -80.3770 22° Northeast  Level FlightAware Approximate
11:30AM 33.2905 -80.3597 22° Northeast  Level FlightAware Approximate
11:31AM 33.3256 -80.3425 28° Northeast  Level FlightAware Approximate
11:32AM 33.3585 -80.3212 22° Northeast  Level FlightAware Approximate
11:33AM 33.3932 -80.3042 22° Northeast  Level FlightAware Approximate
11:34AM 33.4278 -80.2873 22° Northeast  Level FlightAware Approximate
11:35AM 33.4624 -80.2703 22° Northeast  Level FlightAware Approximate
11:36AM 33.4970 -80.2534 22° Northeast  Level FlightAware Approximate
11:37AM 33.5316 -80.2364 22° Northeast  Level FlightAware Approximate
11:38AM 33.5662 -80.2194 22° Northeast  Level FlightAware Approximate
11:39AM 33.6008 -80.2024 22° Northeast  Level FlightAware Approximate
11:40AM 33.6354 -80.1854 22° Northeast  Level FlightAware Approximate
11:41AM 33.6700 -80.1683 22° Northeast  Level FlightAware Approximate
11:42AM 33.7046 -80.1513 22° Northeast  Level FlightAware Approximate
11:43AM 33.7392 -80.1342 22° Northeast  Level FlightAware Approximate
11:44AM 33.7737 -80.1172 22° Northeast  Level FlightAware Approximate
11:45AM 33.8083 -80.1001 22° Northeast  Level FlightAware Approximate
11:46AM 33.8429 -80.0830 22° Northeast  Level FlightAware Approximate
11:47AM 33.8775 -80.0658 22° Northeast  Level FlightAware Approximate
11:48AM 33.9121 -80.0487 22° Northeast  Level FlightAware Approximate
11:49AM 33.9466 -80.0316 18° North  Level FlightAware Approximate
11:50AM 33.9812 -80.0178 22° Northeast  Level FlightAware Approximate
11:51AM 34.0157 -80.0005 23° Northeast  Level FlightAware Approximate
11:52AM 34.0503 -79.9833 23° Northeast  Level FlightAware Approximate
11:53AM 34.0848 -79.9660 23° Northeast  Level FlightAware Approximate
11:54AM 34.1193 -79.9487 23° Northeast  Level FlightAware Approximate
11:55AM 34.1539 -79.9314 23° Northeast  Level FlightAware Approximate
11:56AM 34.1884 -79.9141 23° Northeast  Level FlightAware Approximate
11:57AM 34.2229 -79.8967 23° Northeast  Level FlightAware Approximate
11:58AM 34.2574 -79.8794 23° Northeast  Level FlightAware Approximate
11:59AM 34.2920 -79.8620 22° Northeast  Level FlightAware Approximate
12:00PM 34.3266 -79.8448 23° Northeast  Level FlightAware Approximate
12:01PM 34.3611 -79.8274 23° Northeast  Level FlightAware Approximate
12:02PM 34.3956 -79.8100 23° Northeast  Level FlightAware Approximate
12:03PM 34.4301 -79.7926 23° Northeast  Level FlightAware Approximate
12:04PM 34.4646 -79.7751 23° Northeast  Level FlightAware Approximate
12:05PM 34.4991 -79.7577 23° Northeast  Level FlightAware Approximate
12:06PM 34.5336 -79.7402 23° Northeast  Level FlightAware Approximate
12:07PM 34.5681 -79.7227 23° Northeast  Level FlightAware Approximate
12:08PM 34.6026 -79.7052 23° Northeast  Level FlightAware Approximate
12:09PM 34.6371 -79.6877 30° Northeast  Level FlightAware Approximate
12:10PM 34.6696 -79.6652 22° Northeast  Level FlightAware Approximate
12:11PM 34.7042 -79.6480 22° Northeast  Level FlightAware Approximate